createdAt,value
2023-01-09T00:00:51.851Z,99469.03
2023-01-09T00:03:18.740Z,99460.25
2023-01-09T00:05:45.514Z,99461.06
2023-01-09T00:08:12.499Z,99460.75
2023-01-09T00:10:39.577Z,99457.44
2023-01-09T00:13:06.691Z,99453.00
2023-01-09T00:15:34.080Z,99452.75
2023-01-09T00:18:01.084Z,99451.38
2023-01-09T00:20:27.990Z,99445.59
2023-01-09T00:22:54.907Z,99444.56
2023-01-09T00:25:22.926Z,99437.91
2023-01-09T00:27:49.873Z,99435.69
2023-01-09T00:30:16.793Z,99430.53
2023-01-09T00:32:43.644Z,99426.44
2023-01-09T00:35:15.785Z,99415.44
2023-01-09T00:37:42.768Z,99418.81
2023-01-09T00:40:10.624Z,99419.88
2023-01-09T00:42:37.940Z,99417.06
2023-01-09T00:45:09.828Z,99406.19
2023-01-09T00:47:40.583Z,99409.34
2023-01-09T00:50:13.897Z,99410.75
2023-01-09T00:52:41.262Z,99392.28
2023-01-09T00:55:09.466Z,99389.59
2023-01-09T00:57:36.453Z,99400.38
2023-01-09T01:00:03.945Z,99392.06
2023-01-09T01:02:30.900Z,99384.22
2023-01-09T01:05:16.372Z,99384.41
2023-01-09T01:07:45.076Z,99373.44
2023-01-09T01:10:17.735Z,99373.44
2023-01-09T01:12:44.846Z,99373.94
2023-01-09T01:15:12.854Z,99367.59
2023-01-09T01:17:41.163Z,99368.53
2023-01-09T01:20:14.114Z,99358.81
2023-01-09T01:22:42.652Z,99355.63
2023-01-09T01:25:11.531Z,99351.78
2023-01-09T01:27:38.718Z,99348.34
2023-01-09T01:30:07.946Z,99334.94
2023-01-09T01:32:34.900Z,99332.38
2023-01-09T01:35:01.779Z,99331.06
2023-01-09T01:37:28.624Z,99323.22
2023-01-09T01:39:55.812Z,99332.28
2023-01-09T01:42:23.319Z,99328.50
2023-01-09T01:45:11.181Z,99326.88
2023-01-09T01:48:03.396Z,99305.81
2023-01-09T01:50:41.323Z,99289.19
2023-01-09T01:53:20.746Z,99275.81
2023-01-09T01:55:53.934Z,99265.78
2023-01-09T01:58:21.034Z,99253.09
2023-01-09T02:00:48.069Z,99257.06
2023-01-09T02:03:23.512Z,99249.91
2023-01-09T02:05:50.417Z,99244.75
2023-01-09T02:08:18.173Z,99233.56
2023-01-09T02:10:45.711Z,99229.97
2023-01-09T02:13:49.752Z,99223.66
2023-01-09T02:16:48.097Z,99213.94
2023-01-09T02:19:23.808Z,99220.28
2023-01-09T02:22:16.785Z,99213.84
2023-01-09T02:25:00.917Z,99217.72
2023-01-09T02:28:05.593Z,99216.56
2023-01-09T02:30:38.507Z,99215.91
2023-01-09T02:33:14.256Z,99202.47
2023-01-09T02:36:05.277Z,99205.50
2023-01-09T02:39:02.908Z,99198.13
2023-01-09T02:41:48.757Z,99194.50
2023-01-09T02:44:25.467Z,99187.47
2023-01-09T02:47:29.442Z,99187.63
2023-01-09T02:50:00.322Z,99190.44
2023-01-09T02:52:54.135Z,99188.81
2023-01-09T02:55:24.612Z,99177.38
2023-01-09T02:58:04.935Z,99176.19
2023-01-09T03:00:34.775Z,99168.84
2023-01-09T03:03:10.355Z,99171.28
2023-01-09T03:05:52.650Z,99167.09
2023-01-09T03:08:27.784Z,99166.59
2023-01-09T03:11:01.765Z,99162.16
2023-01-09T03:13:34.091Z,99158.56
2023-01-09T03:16:05.568Z,99154.09
2023-01-09T03:18:36.449Z,99152.47
2023-01-09T03:21:06.473Z,99138.47
2023-01-09T03:23:46.301Z,99140.09
2023-01-09T03:26:13.161Z,99130.50
2023-01-09T03:28:40.054Z,99134.72
2023-01-09T03:31:06.950Z,99132.63
2023-01-09T03:33:33.912Z,99127.81
2023-01-09T03:36:01.019Z,99117.31
2023-01-09T03:38:27.909Z,99120.59
2023-01-09T03:40:54.843Z,99110.31
2023-01-09T03:43:21.918Z,99107.50
2023-01-09T03:45:48.984Z,99110.75
2023-01-09T03:48:16.010Z,99105.97
2023-01-09T03:50:45.984Z,99104.72
2023-01-09T03:53:13.985Z,99103.44
2023-01-09T03:55:44.170Z,99097.22
2023-01-09T03:58:11.089Z,99105.41
2023-01-09T04:00:39.334Z,99097.94
2023-01-09T04:03:07.983Z,99099.78
2023-01-09T04:05:35.062Z,99103.31
2023-01-09T04:08:02.135Z,99097.13
2023-01-09T04:10:29.005Z,99095.84
2023-01-09T04:12:55.916Z,99085.91
2023-01-09T04:15:23.261Z,99070.75
2023-01-09T04:17:50.438Z,99069.47
2023-01-09T04:20:17.588Z,99083.47
2023-01-09T04:22:45.040Z,99079.94
2023-01-09T04:25:12.199Z,99078.09
2023-01-09T04:27:39.213Z,99079.50
2023-01-09T04:30:06.812Z,99070.38
2023-01-09T04:32:33.656Z,99073.88
2023-01-09T04:35:00.522Z,99070.38
2023-01-09T04:37:27.456Z,99073.75
2023-01-09T04:39:56.251Z,99068.88
2023-01-09T04:42:24.544Z,99069.81
2023-01-09T04:44:54.309Z,99070.97
2023-01-09T04:47:22.050Z,99070.16
2023-01-09T04:49:48.829Z,99074.94
2023-01-09T04:52:15.700Z,99074.38
2023-01-09T04:54:42.577Z,99074.59
2023-01-09T04:57:09.597Z,99085.34
2023-01-09T04:59:39.291Z,99081.59
2023-01-09T05:02:06.430Z,99081.25
2023-01-09T05:04:33.469Z,99078.31
2023-01-09T05:07:00.301Z,99066.66
2023-01-09T05:09:27.157Z,99073.31
2023-01-09T05:11:55.201Z,99077.41
2023-01-09T05:14:22.093Z,99070.38
2023-01-09T05:16:49.003Z,99079.25
2023-01-09T05:19:16.147Z,99074.72
2023-01-09T05:21:43.449Z,99074.94
2023-01-09T05:24:10.303Z,99068.97
2023-01-09T05:26:37.195Z,99067.47
2023-01-09T05:29:03.974Z,99067.38
2023-01-09T05:31:30.923Z,99057.31
2023-01-09T05:33:59.395Z,99067.25
2023-01-09T05:36:26.635Z,99052.28
2023-01-09T05:38:53.518Z,99046.91
2023-01-09T05:41:20.959Z,99037.13
2023-01-09T05:43:48.532Z,99041.66
2023-01-09T05:46:15.945Z,99046.09
2023-01-09T05:48:42.851Z,99042.72
2023-01-09T05:51:09.657Z,99041.44
2023-01-09T05:53:36.571Z,99038.06
2023-01-09T05:56:03.482Z,99032.25
2023-01-09T05:58:30.269Z,99028.97
2023-01-09T06:00:58.744Z,99015.22
2023-01-09T06:03:25.522Z,99000.72
2023-01-09T06:05:52.517Z,98984.03
2023-01-09T06:08:19.377Z,99005.03
2023-01-09T06:10:47.097Z,99013.09
2023-01-09T06:13:14.315Z,99020.34
2023-01-09T06:15:41.495Z,99018.94
2023-01-09T06:18:08.363Z,99028.25
2023-01-09T06:20:35.241Z,99025.34
2023-01-09T06:23:02.075Z,99021.03
2023-01-09T06:25:28.949Z,99019.16
2023-01-09T06:27:55.756Z,99021.47
2023-01-09T06:30:22.772Z,99025.09
2023-01-09T06:32:50.010Z,99019.84
2023-01-09T06:35:20.662Z,99018.69
2023-01-09T06:37:49.979Z,99017.28
2023-01-09T06:40:18.003Z,99019.03
2023-01-09T06:42:45.731Z,99014.38
2023-01-09T06:45:13.943Z,99028.94
2023-01-09T06:47:41.251Z,99017.97
2023-01-09T06:50:11.867Z,99010.41
2023-01-09T06:52:39.644Z,99001.50
2023-01-09T06:55:07.833Z,99015.03
2023-01-09T06:57:35.143Z,99022.06
2023-01-09T07:00:02.165Z,99021.69
2023-01-09T07:02:29.388Z,99021.25
2023-01-09T07:04:56.203Z,99021.81
2023-01-09T07:07:23.056Z,99011.19
2023-01-09T07:09:50.085Z,99008.19
2023-01-09T07:12:17.100Z,98998.75
2023-01-09T07:14:44.038Z,99006.78
2023-01-09T07:17:13.857Z,99000.16
2023-01-09T07:19:41.167Z,98993.38
2023-01-09T07:22:08.592Z,98995.69
2023-01-09T07:24:35.950Z,98989.06
2023-01-09T07:27:03.202Z,98987.06
2023-01-09T07:29:30.620Z,98989.53
2023-01-09T07:31:57.719Z,98973.91
2023-01-09T07:34:24.660Z,98978.78
2023-01-09T07:36:51.947Z,98978.31
2023-01-09T07:39:19.055Z,98985.19
2023-01-09T07:41:46.243Z,98977.50
2023-01-09T07:44:14.869Z,98977.03
2023-01-09T07:46:42.015Z,98970.63
2023-01-09T07:49:08.996Z,98962.69
2023-01-09T07:51:35.935Z,98958.94
2023-01-09T07:54:02.791Z,98963.38
2023-01-09T07:56:29.660Z,98956.41
2023-01-09T07:58:56.526Z,98968.06
2023-01-09T08:01:26.551Z,98948.69
2023-01-09T08:03:53.489Z,98957.34
2023-01-09T08:06:20.406Z,98942.84
2023-01-09T08:08:47.317Z,98940.28
2023-01-09T08:11:14.186Z,98944.47
2023-01-09T08:13:41.176Z,98935.28
2023-01-09T08:16:08.235Z,98933.63
2023-01-09T08:18:35.051Z,98942.84
2023-01-09T08:21:01.906Z,98955.69
2023-01-09T08:23:28.782Z,98954.06
2023-01-09T08:25:55.610Z,98947.78
2023-01-09T08:28:22.558Z,98945.69
2023-01-09T08:30:49.353Z,98941.22
2023-01-09T08:33:16.275Z,98935.06
2023-01-09T08:35:44.518Z,98929.56
2023-01-09T08:38:11.587Z,98922.13
2023-01-09T08:40:38.785Z,98923.75
2023-01-09T08:43:24.271Z,98933.28
2023-01-09T08:46:20.786Z,98933.66
2023-01-09T08:48:50.742Z,98931.19
2023-01-09T08:51:17.576Z,98927.56
2023-01-09T08:53:44.399Z,98925.13
2023-01-09T08:56:11.299Z,98914.84
2023-01-09T08:58:38.239Z,98900.50
2023-01-09T09:01:06.858Z,98900.34
2023-01-09T09:03:33.857Z,98895.19
2023-01-09T09:06:00.698Z,98883.31
2023-01-09T09:08:27.599Z,98872.06
2023-01-09T09:10:54.558Z,98866.88
2023-01-09T09:13:21.422Z,98868.31
2023-01-09T09:15:48.396Z,98861.78
2023-01-09T09:18:15.880Z,98863.25
2023-01-09T09:20:43.291Z,98869.38
2023-01-09T09:23:10.197Z,98872.19
2023-01-09T09:25:38.655Z,98877.50
2023-01-09T09:28:06.449Z,98889.72
2023-01-09T09:30:38.548Z,98890.22
2023-01-09T09:33:06.010Z,98891.13
2023-01-09T09:35:34.264Z,98891.34
2023-01-09T09:38:05.212Z,98870.19
2023-01-09T09:40:55.697Z,98847.78
2023-01-09T09:44:01.246Z,98853.88
2023-01-09T09:46:37.079Z,98867.31
2023-01-09T09:49:31.355Z,98869.09
2023-01-09T09:52:09.880Z,98869.50
2023-01-09T09:54:46.811Z,98875.63
2023-01-09T09:57:23.254Z,98863.47
2023-01-09T09:59:52.737Z,98853.59
2023-01-09T10:02:33.338Z,98855.31
2023-01-09T10:05:15.387Z,98851.25
2023-01-09T10:07:48.189Z,98833.88
2023-01-09T10:10:25.185Z,98824.16
2023-01-09T10:12:58.708Z,98826.47
2023-01-09T10:15:46.539Z,98823.84
2023-01-09T10:18:40.356Z,98820.06
2023-01-09T10:21:18.660Z,98815.38
2023-01-09T10:24:07.498Z,98811.00
2023-01-09T10:26:48.739Z,98820.94
2023-01-09T10:29:23.055Z,98804.06
2023-01-09T10:32:16.118Z,98808.13
2023-01-09T10:34:50.420Z,98814.06
2023-01-09T10:37:19.908Z,98808.38
2023-01-09T10:40:18.269Z,98802.19
2023-01-09T10:42:49.761Z,98793.38
2023-01-09T10:45:24.227Z,98788.88
2023-01-09T10:47:53.899Z,98786.91
2023-01-09T10:50:22.922Z,98786.13
2023-01-09T10:52:55.703Z,98781.78
2023-01-09T10:55:41.142Z,98786.47
2023-01-09T10:58:17.186Z,98778.03
2023-01-09T11:00:45.224Z,98783.88
2023-01-09T11:03:20.617Z,98781.19
2023-01-09T11:05:57.965Z,98765.09
2023-01-09T11:08:31.973Z,98759.59
2023-01-09T11:11:01.131Z,98757.63
2023-01-09T11:13:33.566Z,98756.44
2023-01-09T11:16:07.782Z,98754.69
2023-01-09T11:18:38.940Z,98758.75
2023-01-09T11:21:36.282Z,98745.84
2023-01-09T11:24:28.947Z,98746.66
2023-01-09T11:27:28.172Z,98741.53
2023-01-09T11:30:17.937Z,98752.38
2023-01-09T11:32:45.857Z,98741.81
2023-01-09T11:35:34.820Z,98744.88
2023-01-09T11:38:13.068Z,98746.63
2023-01-09T11:41:01.910Z,98752.06
2023-01-09T11:43:39.922Z,98736.53
2023-01-09T11:46:29.593Z,98729.03
2023-01-09T11:48:59.104Z,98732.78
2023-01-09T11:51:33.693Z,98729.34
2023-01-09T11:54:26.230Z,98737.00
2023-01-09T11:56:53.438Z,98729.19
2023-01-09T11:59:25.442Z,98728.53
2023-01-09T12:02:13.452Z,98728.09
2023-01-09T12:04:54.364Z,98716.22
2023-01-09T12:07:21.222Z,98731.75
2023-01-09T12:10:12.359Z,98728.72
2023-01-09T12:13:13.548Z,98717.66
2023-01-09T12:16:01.832Z,98722.69
2023-01-09T12:18:44.337Z,98724.53
2023-01-09T12:21:26.325Z,98724.06
2023-01-09T12:24:18.520Z,98728.06
2023-01-09T12:26:45.335Z,98743.13
2023-01-09T12:29:39.640Z,98728.06
2023-01-09T12:32:31.015Z,98727.75
2023-01-09T12:35:19.746Z,98721.00
2023-01-09T12:37:54.511Z,98722.88
2023-01-09T12:40:42.653Z,98722.94
2023-01-09T12:43:24.450Z,98712.41
2023-01-09T12:46:32.909Z,98713.31
2023-01-09T12:49:42.306Z,98713.09
2023-01-09T12:52:47.307Z,98723.69
2023-01-09T12:55:24.622Z,98724.72
2023-01-09T12:57:56.369Z,98722.13
2023-01-09T13:00:49.727Z,98720.00
2023-01-09T13:03:29.060Z,98712.69
2023-01-09T13:05:57.641Z,98711.84
2023-01-09T13:09:04.212Z,98709.53
2023-01-09T13:11:57.634Z,98710.09
2023-01-09T13:14:47.235Z,98700.78
2023-01-09T13:17:24.035Z,98695.78
2023-01-09T13:19:50.981Z,98687.25
2023-01-09T13:22:18.329Z,98678.59
2023-01-09T13:25:06.637Z,98679.31
2023-01-09T13:27:39.557Z,98678.28
2023-01-09T13:30:12.610Z,98677.97
2023-01-09T13:32:50.039Z,98691.69
2023-01-09T13:35:16.992Z,98686.56
2023-01-09T13:37:51.924Z,98673.75
2023-01-09T13:40:18.809Z,98675.78
2023-01-09T13:43:02.711Z,98687.78
2023-01-09T13:45:32.818Z,98682.34
2023-01-09T13:48:09.026Z,98677.84
2023-01-09T13:50:37.000Z,98677.84
2023-01-09T13:53:28.137Z,98676.53
2023-01-09T13:55:58.653Z,98672.16
2023-01-09T13:58:31.941Z,98679.09
2023-01-09T14:01:00.348Z,98678.97
2023-01-09T14:03:27.255Z,98678.84
2023-01-09T14:05:54.128Z,98678.56
2023-01-09T14:08:24.237Z,98680.97
2023-01-09T14:11:01.081Z,98675.44
2023-01-09T14:13:39.066Z,98686.13
2023-01-09T14:16:14.550Z,98696.47
2023-01-09T14:19:08.116Z,98713.78
2023-01-09T14:21:54.483Z,98701.25
2023-01-09T14:24:43.955Z,98706.81
2023-01-09T14:27:48.524Z,98709.50
2023-01-09T14:30:27.785Z,98710.38
2023-01-09T14:33:19.162Z,98696.81
2023-01-09T14:35:52.873Z,98695.16
2023-01-09T14:38:25.778Z,98698.16
2023-01-09T14:40:59.813Z,98701.59
2023-01-09T14:43:37.541Z,98712.19
2023-01-09T14:46:11.566Z,98700.03
2023-01-09T14:48:51.478Z,98695.72
2023-01-09T14:51:20.671Z,98699.50
2023-01-09T14:53:51.789Z,98651.59
2023-01-09T14:56:31.421Z,98643.84
2023-01-09T14:59:12.038Z,98634.31
2023-01-09T15:01:42.326Z,98633.47
2023-01-09T15:04:23.745Z,98625.13
2023-01-09T15:06:50.948Z,98631.81
2023-01-09T15:09:34.598Z,98622.78
2023-01-09T15:12:08.281Z,98627.53
2023-01-09T15:14:41.490Z,98622.94
2023-01-09T15:17:26.479Z,98628.78
2023-01-09T15:19:54.276Z,98628.91
2023-01-09T15:22:34.946Z,98629.34
2023-01-09T15:25:22.773Z,98632.13
2023-01-09T15:28:00.376Z,98618.31
2023-01-09T15:30:34.350Z,98624.06
2023-01-09T15:33:04.873Z,98617.38
2023-01-09T15:35:34.999Z,98615.81
2023-01-09T15:38:01.762Z,98610.34
2023-01-09T15:40:34.347Z,98601.53
2023-01-09T15:43:02.060Z,98595.31
2023-01-09T15:45:36.007Z,98603.47
2023-01-09T15:48:18.170Z,98599.59
2023-01-09T15:50:47.440Z,98594.97
2023-01-09T15:53:17.229Z,98606.56
2023-01-09T15:55:44.205Z,98603.88
2023-01-09T15:58:29.615Z,98606.03
2023-01-09T16:01:03.162Z,98623.19
2023-01-09T16:03:30.385Z,98632.84
2023-01-09T16:06:05.782Z,98654.84
2023-01-09T16:08:42.747Z,98657.69
2023-01-09T16:11:22.790Z,98670.53
2023-01-09T16:13:50.700Z,98672.25
2023-01-09T16:16:33.905Z,98671.81
2023-01-09T16:19:01.061Z,98673.41
2023-01-09T16:21:37.740Z,98657.34
2023-01-09T16:24:25.271Z,98650.16
2023-01-09T16:27:10.752Z,98648.09
2023-01-09T16:29:39.540Z,98633.75
2023-01-09T16:32:07.132Z,98634.13
2023-01-09T16:34:35.767Z,98640.31
2023-01-09T16:37:05.047Z,98641.84
2023-01-09T16:39:40.403Z,98646.97
2023-01-09T16:42:28.024Z,98642.00
2023-01-09T16:44:54.852Z,98667.66
2023-01-09T16:47:21.708Z,98673.91
2023-01-09T16:49:50.647Z,98639.13
2023-01-09T16:52:18.280Z,98668.22
2023-01-09T16:54:47.521Z,98669.38
2023-01-09T16:57:22.412Z,98686.16
2023-01-09T16:59:59.758Z,98679.81
2023-01-09T17:02:34.042Z,98694.97
2023-01-09T17:05:02.334Z,98686.44
2023-01-09T17:07:34.445Z,98718.03
2023-01-09T17:10:02.310Z,98696.72
2023-01-09T17:12:29.097Z,98693.25
2023-01-09T17:14:55.956Z,98703.34
2023-01-09T17:17:22.787Z,98706.72
2023-01-09T17:19:49.678Z,98733.16
2023-01-09T17:22:16.862Z,98757.00
2023-01-09T17:25:02.427Z,98741.22
2023-01-09T17:27:55.378Z,98764.28
2023-01-09T17:30:23.119Z,98771.00
2023-01-09T17:32:50.938Z,98781.56
2023-01-09T17:35:17.940Z,98795.94
2023-01-09T17:37:45.036Z,98793.28
2023-01-09T17:40:26.440Z,98792.34
2023-01-09T17:42:53.611Z,98811.97
2023-01-09T17:45:20.697Z,98822.09
2023-01-09T17:47:50.855Z,98827.00
2023-01-09T17:50:21.171Z,98811.63
2023-01-09T17:52:49.950Z,98839.34
2023-01-09T17:55:20.388Z,98839.19
2023-01-09T17:57:47.333Z,98851.88
2023-01-09T18:00:36.930Z,98846.59
2023-01-09T18:03:05.202Z,98844.16
2023-01-09T18:05:32.193Z,98856.28
2023-01-09T18:07:59.354Z,98867.13
2023-01-09T18:10:29.633Z,98880.13
2023-01-09T18:12:57.049Z,98889.16
2023-01-09T18:15:24.668Z,98901.28
2023-01-09T18:17:52.592Z,98912.19
2023-01-09T18:20:19.625Z,98913.41
2023-01-09T18:22:47.776Z,98929.44
2023-01-09T18:25:14.648Z,98928.19
2023-01-09T18:27:42.009Z,98928.59
2023-01-09T18:30:09.776Z,98932.47
2023-01-09T18:32:38.874Z,98927.13
2023-01-09T18:35:06.057Z,98924.47
2023-01-09T18:37:32.969Z,98938.00
2023-01-09T18:40:00.249Z,98943.75
2023-01-09T18:42:27.180Z,98951.56
2023-01-09T18:44:54.978Z,98948.84
2023-01-09T18:47:25.474Z,98948.41
2023-01-09T18:49:52.869Z,98962.19
2023-01-09T18:52:25.756Z,98960.16
2023-01-09T18:54:58.453Z,98960.19
2023-01-09T18:57:25.983Z,98960.81
2023-01-09T18:59:57.156Z,98962.50
2023-01-09T19:02:31.519Z,98948.53
2023-01-09T19:04:59.729Z,98948.53
2023-01-09T19:07:27.162Z,98959.22
2023-01-09T19:09:54.215Z,98950.19
2023-01-09T19:12:21.031Z,98957.78
2023-01-09T19:14:48.063Z,98951.88
2023-01-09T19:17:15.616Z,98960.88
2023-01-09T19:19:42.599Z,98949.41
2023-01-09T19:22:09.371Z,98953.53
2023-01-09T19:24:37.829Z,98953.31
2023-01-09T19:27:04.880Z,98950.25
2023-01-09T19:29:31.874Z,98952.88
2023-01-09T19:31:59.734Z,98959.88
2023-01-09T19:34:26.630Z,98957.81
2023-01-09T19:36:53.972Z,98958.44
2023-01-09T19:39:21.460Z,98956.19
2023-01-09T19:41:48.503Z,98945.09
2023-01-09T19:44:15.323Z,98939.78
2023-01-09T19:46:42.287Z,98950.63
2023-01-09T19:49:09.536Z,98949.97
2023-01-09T19:51:36.655Z,98938.13
2023-01-09T19:56:34.135Z,98950.59
2023-01-09T19:59:03.102Z,98944.25
2023-01-09T20:01:32.502Z,98948.94
2023-01-09T20:04:05.226Z,98952.22
2023-01-09T20:06:32.288Z,98961.06
2023-01-09T20:09:01.237Z,98961.06
2023-01-09T20:11:31.493Z,98957.97
2023-01-09T20:13:58.311Z,98958.16
2023-01-09T20:16:30.694Z,98964.34
2023-01-09T20:18:59.873Z,98963.31
2023-01-09T20:21:28.600Z,98968.84
2023-01-09T20:23:58.994Z,98966.59
2023-01-09T20:26:26.502Z,98971.09
2023-01-09T20:28:54.161Z,98971.91
2023-01-09T20:31:22.489Z,98972.34
2023-01-09T20:33:51.183Z,98982.00
2023-01-09T20:36:19.620Z,98986.28
2023-01-09T20:38:46.458Z,98991.81
2023-01-09T20:41:25.564Z,98992.03
2023-01-09T20:43:55.843Z,98992.03
2023-01-09T20:46:24.355Z,98990.78
2023-01-09T20:48:51.504Z,98988.75
2023-01-09T20:51:18.725Z,99001.88
2023-01-09T20:53:47.643Z,99006.59
2023-01-09T20:56:14.853Z,99010.91
2023-01-09T20:58:42.567Z,99006.38
2023-01-09T21:01:11.976Z,99023.63
2023-01-09T21:03:39.906Z,99000.25
2023-01-09T21:06:26.227Z,99034.28
2023-01-09T21:08:53.301Z,99023.59
2023-01-09T21:11:22.061Z,99025.88
2023-01-09T21:13:49.505Z,99037.56
2023-01-09T21:16:21.789Z,99036.72
2023-01-09T21:18:48.819Z,99039.41
2023-01-09T21:21:18.882Z,99044.13
2023-01-09T21:23:47.811Z,99052.72
2023-01-09T21:26:15.779Z,99052.13
2023-01-09T21:28:49.896Z,99062.59
2023-01-09T21:31:20.982Z,99051.50
2023-01-09T21:33:48.481Z,99061.16
2023-01-09T21:36:16.139Z,99058.06
2023-01-09T21:38:43.407Z,99060.97
2023-01-09T21:41:29.428Z,99059.94
2023-01-09T21:44:14.971Z,99072.22
2023-01-09T21:46:55.972Z,99075.72
2023-01-09T21:49:25.783Z,99076.53
2023-01-09T21:51:54.472Z,99079.41
2023-01-09T21:54:23.462Z,99077.38
2023-01-09T21:56:51.667Z,99082.06
2023-01-09T21:59:19.059Z,99092.50
2023-01-09T22:01:46.350Z,99094.16
2023-01-09T22:04:15.084Z,99090.28
2023-01-09T22:06:42.182Z,99086.59
2023-01-09T22:09:10.203Z,99090.28
2023-01-09T22:11:41.361Z,99104.84
2023-01-09T22:14:12.161Z,99104.63
2023-01-09T22:16:39.057Z,99111.38
2023-01-09T22:19:05.979Z,99107.91
2023-01-09T22:21:33.013Z,99110.16
2023-01-09T22:24:01.744Z,99120.41
2023-01-09T22:26:30.151Z,99119.56
2023-01-09T22:28:57.377Z,99113.63
2023-01-09T22:31:29.513Z,99128.19
2023-01-09T22:33:58.528Z,99128.41
2023-01-09T22:36:28.223Z,99119.81
2023-01-09T22:38:56.735Z,99109.97
2023-01-09T22:41:24.654Z,99128.44
2023-01-09T22:43:51.660Z,99123.91
2023-01-09T22:46:18.680Z,99115.72
2023-01-09T22:48:45.739Z,99114.91
2023-01-09T22:51:18.609Z,99119.59
2023-01-09T22:53:45.755Z,99125.13
2023-01-09T22:56:14.982Z,99121.25
2023-01-09T22:58:42.247Z,99121.88
2023-01-09T23:01:12.599Z,99131.50
2023-01-09T23:03:40.684Z,99124.31
2023-01-09T23:06:12.990Z,99120.81
2023-01-09T23:08:40.098Z,99126.56
2023-01-09T23:11:10.865Z,99128.41
2023-01-09T23:13:38.378Z,99123.88
2023-01-09T23:16:05.623Z,99118.97
2023-01-09T23:18:32.461Z,99122.47
2023-01-09T23:21:02.079Z,99120.63
2023-01-09T23:23:30.289Z,99126.56
2023-01-09T23:26:00.171Z,99119.38
2023-01-09T23:28:28.095Z,99123.28
2023-01-09T23:30:54.942Z,99124.72
2023-01-09T23:33:21.987Z,99128.38
2023-01-09T23:35:49.087Z,99118.75
2023-01-09T23:38:16.229Z,99114.66
2023-01-09T23:40:43.202Z,99118.56
2023-01-09T23:43:12.315Z,99120.19
2023-01-09T23:45:50.502Z,99120.81
2023-01-09T23:48:18.690Z,99126.34
2023-01-09T23:50:53.751Z,99125.31
2023-01-09T23:53:22.710Z,99129.78
2023-01-09T23:55:52.247Z,99120.97
2023-01-09T23:58:19.098Z,99137.34
